Time;durP1;ratioP1;P1;durP2;ratioP2;P2;SDS_P1;SDS_P2;PMS_P1;PMS_P2;Temp;Humidity;BMP_temperature;BMP_pressure;BME280_temperature;BME280_humidity;BME280_pressure;Samples;Min_cycle;Max_cycle;Signal;HPM_P1;HPM_P2
2023/08/14 00:02:24;;;;;;;8.80;2.95;;;17.90;97.20;;;;;;4997721;28;20041;-82
2023/08/14 00:04:50;;;;;;;5.40;2.78;;;17.80;97.30;;;;;;5013843;28;20065;-82
2023/08/14 00:07:15;;;;;;;7.28;2.78;;;17.80;97.30;;;;;;4981367;28;20030;-81
2023/08/14 00:09:41;;;;;;;6.43;2.85;;;17.80;97.50;;;;;;4982260;28;20448;-81
2023/08/14 00:12:07;;;;;;;6.53;2.65;;;17.70;97.50;;;;;;5015077;28;20030;-81
2023/08/14 00:14:33;;;;;;;7.32;3.40;;;17.70;97.60;;;;;;4981524;28;20034;-82
2023/08/14 00:16:59;;;;;;;5.45;3.08;;;17.70;97.80;;;;;;5015088;28;20467;-82
2023/08/14 00:19:24;;;;;;;6.90;3.35;;;17.70;97.90;;;;;;5014899;28;20092;-82
2023/08/14 00:21:50;;;;;;;5.82;2.83;;;17.60;98.00;;;;;;5014801;28;20168;-82
2023/08/14 00:24:16;;;;;;;12.90;4.18;;;17.60;98.10;;;;;;5014887;28;20382;-82
2023/08/14 00:26:42;;;;;;;7.75;3.63;;;17.60;98.30;;;;;;5014757;28;20037;-82
2023/08/14 00:29:07;;;;;;;9.20;3.55;;;17.60;98.40;;;;;;4997356;28;20536;-82
2023/08/14 00:31:33;;;;;;;8.20;3.92;;;17.60;98.50;;;;;;4980957;28;20032;-82
2023/08/14 00:33:58;;;;;;;6.82;3.53;;;17.50;98.60;;;;;;4997171;28;20029;-82
2023/08/14 00:36:24;;;;;;;7.32;3.63;;;17.50;98.70;;;;;;4980786;28;20044;-82
2023/08/14 00:38:50;;;;;;;9.80;3.67;;;17.50;98.90;;;;;;4981021;28;20038;-81
2023/08/14 00:41:16;;;;;;;6.93;3.85;;;17.50;99.00;;;;;;4997168;28;20034;-81
2023/08/14 00:43:42;;;;;;;8.10;3.55;;;17.50;99.20;;;;;;5013131;28;20050;-82
2023/08/14 00:46:08;;;;;;;8.43;3.47;;;17.40;99.30;;;;;;4997780;28;20517;-81
2023/08/14 00:48:34;;;;;;;7.22;3.55;;;17.50;99.50;;;;;;5012900;28;20516;-82
2023/08/14 00:51:00;;;;;;;8.27;3.45;;;17.50;99.70;;;;;;4980586;28;20545;-82
2023/08/14 00:53:27;;;;;;;9.30;3.75;;;17.40;99.80;;;;;;5013868;28;20109;-82
2023/08/14 00:55:54;;;;;;;7.70;3.72;;;17.40;99.90;;;;;;5013159;28;20112;-82
2023/08/14 00:58:23;;;;;;;7.35;3.33;;;17.40;99.90;;;;;;5012557;28;20045;-82
2023/08/14 01:00:50;;;;;;;8.80;4.00;;;17.40;99.90;;;;;;4996468;28;20467;-82
2023/08/14 01:03:17;;;;;;;8.25;3.72;;;17.40;99.90;;;;;;5012775;28;20117;-82
2023/08/14 01:05:44;;;;;;;7.18;3.00;;;17.50;99.90;;;;;;4997046;28;20038;-82
2023/08/14 01:08:10;;;;;;;7.57;3.55;;;17.50;99.90;;;;;;5012709;28;20030;-82
2023/08/14 01:11:00;;;;;;;7.78;3.78;;;17.40;99.90;;;;;;4996599;28;20040;-81
2023/08/14 01:13:28;;;;;;;7.57;3.08;;;17.50;99.90;;;;;;5006954;28;20034;-82
2023/08/14 01:15:58;;;;;;;6.28;2.85;;;17.50;99.90;;;;;;5013939;28;20029;-82
2023/08/14 01:18:28;;;;;;;6.57;3.17;;;17.40;99.90;;;;;;5012939;28;20034;-82
2023/08/14 01:21:20;;;;;;;5.15;2.70;;;17.40;99.90;;;;;;5012611;28;20472;-82
2023/08/14 01:23:59;;;;;;;5.28;3.03;;;17.40;99.90;;;;;;4996346;28;20034;-82
2023/08/14 01:26:26;;;;;;;7.13;3.13;;;17.40;99.90;;;;;;5013693;28;20053;-82
2023/08/14 01:28:53;;;;;;;7.00;3.00;;;17.40;99.90;;;;;;4996042;28;20104;-82
2023/08/14 01:31:19;;;;;;;7.25;3.00;;;17.40;99.90;;;;;;4997321;28;20390;-82
2023/08/14 01:33:45;;;;;;;6.82;3.00;;;17.40;99.90;;;;;;5033563;28;20026;-82
2023/08/14 01:36:10;;;;;;;6.00;2.95;;;17.40;99.90;;;;;;5031802;28;20037;-82
2023/08/14 01:38:52;;;;;;;7.70;2.97;;;17.40;99.90;;;;;;5032034;28;20049;-82
2023/08/14 01:41:45;;;;;;;6.47;3.03;;;17.30;99.90;;;;;;5033493;28;20033;-81
2023/08/14 01:44:14;;;;;;;7.22;2.95;;;17.30;99.90;;;;;;5033129;28;20050;-82
2023/08/14 01:46:43;;;;;;;6.82;3.05;;;17.30;99.90;;;;;;5031952;28;20144;-82
2023/08/14 01:49:11;;;;;;;7.28;3.15;;;17.30;99.90;;;;;;5016361;28;20362;-82
2023/08/14 01:51:38;;;;;;;6.75;3.50;;;17.30;99.90;;;;;;5033290;28;20450;-82
2023/08/14 01:54:04;;;;;;;8.45;3.75;;;17.20;99.90;;;;;;5033449;28;20112;-82
2023/08/14 01:56:30;;;;;;;6.95;3.15;;;17.20;99.90;;;;;;5015695;28;20560;-82
2023/08/14 01:58:55;;;;;;;8.43;3.42;;;17.20;99.90;;;;;;5011204;28;20129;-82
2023/08/14 02:01:21;;;;;;;7.18;3.30;;;17.10;99.90;;;;;;5015346;28;20030;-82
2023/08/14 02:03:47;;;;;;;5.65;3.25;;;17.10;99.90;;;;;;4998794;28;20032;-82
2023/08/14 02:06:12;;;;;;;7.78;4.15;;;17.10;99.90;;;;;;5015491;28;20388;-81
2023/08/14 02:08:38;;;;;;;9.68;4.05;;;17.10;99.90;;;;;;5033124;28;20517;-82
2023/08/14 02:11:08;;;;;;;7.90;4.25;;;17.10;99.90;;;;;;5000604;28;20120;-81
2023/08/14 02:13:34;;;;;;;8.93;4.22;;;17.10;99.90;;;;;;5019523;28;20026;-82
2023/08/14 02:15:59;;;;;;;8.27;3.85;;;17.00;99.90;;;;;;5019342;28;20397;-82
2023/08/14 02:18:25;;;;;;;10.90;4.10;;;17.00;99.90;;;;;;5035771;28;20029;-82
2023/08/14 02:20:53;;;;;;;8.38;3.92;;;17.00;99.90;;;;;;5019517;28;20037;-82
2023/08/14 02:23:19;;;;;;;7.85;4.05;;;17.00;99.90;;;;;;5035649;28;20029;-82
2023/08/14 02:25:45;;;;;;;8.38;4.63;;;17.00;99.90;;;;;;5035452;28;20025;-81
2023/08/14 02:28:11;;;;;;;8.98;4.65;;;16.90;99.90;;;;;;5019051;28;20025;-81
2023/08/14 02:30:38;;;;;;;7.57;4.47;;;16.90;99.90;;;;;;5019217;28;20037;-82
2023/08/14 02:33:04;;;;;;;8.63;4.43;;;16.90;99.90;;;;;;5035433;28;20025;-82
2023/08/14 02:35:30;;;;;;;9.07;4.93;;;16.90;99.90;;;;;;5036638;28;20535;-82
2023/08/14 02:37:55;;;;;;;7.53;4.43;;;16.90;99.90;;;;;;5035450;28;20033;-82
2023/08/14 02:40:21;;;;;;;9.10;4.47;;;16.90;99.90;;;;;;5036523;28;20033;-82
2023/08/14 02:42:47;;;;;;;10.05;6.00;;;16.90;99.90;;;;;;5035323;28;20026;-82
2023/08/14 02:45:12;;;;;;;10.88;6.15;;;16.80;99.90;;;;;;5015247;28;20062;-82
2023/08/14 02:47:39;;;;;;;8.40;5.20;;;16.90;99.90;;;;;;4999112;28;20072;-82
2023/08/14 02:50:05;;;;;;;11.38;6.00;;;16.80;99.90;;;;;;5015448;28;20386;-81
2023/08/14 02:52:30;;;;;;;9.52;5.72;;;16.90;99.90;;;;;;4998971;28;20041;-81
2023/08/14 02:54:56;;;;;;;9.13;5.72;;;16.90;99.90;;;;;;5015367;28;20112;-81
2023/08/14 02:57:22;;;;;;;9.75;6.57;;;16.90;99.90;;;;;;5015284;28;20092;-82
2023/08/14 02:59:48;;;;;;;10.63;5.95;;;16.90;99.90;;;;;;5016630;28;20048;-81
2023/08/14 03:02:13;;;;;;;11.90;6.28;;;16.80;99.90;;;;;;4998804;28;20101;-81
2023/08/14 03:04:39;;;;;;;10.80;6.55;;;16.80;99.90;;;;;;5015216;28;20117;-82
2023/08/14 03:07:04;;;;;;;12.35;6.22;;;16.80;99.90;;;;;;5015067;28;20034;-82
2023/08/14 03:09:30;;;;;;;11.15;6.38;;;16.80;99.90;;;;;;4998718;28;20394;-82
2023/08/14 03:11:56;;;;;;;9.85;6.70;;;16.80;99.90;;;;;;5015014;28;20061;-81
2023/08/14 03:14:21;;;;;;;10.52;6.50;;;16.80;99.90;;;;;;5016151;28;20025;-82
2023/08/14 03:16:47;;;;;;;13.55;5.95;;;16.80;99.90;;;;;;4998431;28;20438;-81
2023/08/14 03:19:13;;;;;;;10.63;5.88;;;16.70;99.90;;;;;;5014842;28;20037;-81
2023/08/14 03:21:38;;;;;;;9.60;6.43;;;16.70;99.90;;;;;;4998311;28;20062;-82
2023/08/14 03:24:04;;;;;;;9.73;6.72;;;16.70;99.90;;;;;;4998335;28;20034;-82
2023/08/14 03:26:30;;;;;;;12.48;6.38;;;16.70;99.90;;;;;;4992548;28;20478;-82
2023/08/14 03:28:55;;;;;;;9.15;5.97;;;16.70;99.90;;;;;;4982710;28;20027;-81
2023/08/14 03:31:21;;;;;;;11.63;6.57;;;16.70;99.90;;;;;;4994756;28;20026;-81
2023/08/14 03:33:46;;;;;;;12.23;6.45;;;16.70;99.90;;;;;;4995139;28;20058;-82
2023/08/14 03:36:12;;;;;;;10.10;6.50;;;16.70;99.90;;;;;;4994860;28;20034;-81
2023/08/14 03:38:38;;;;;;;11.68;6.85;;;16.70;99.90;;;;;;4995049;28;20475;-82
2023/08/14 03:41:04;;;;;;;10.15;6.35;;;16.70;99.90;;;;;;4994918;28;20121;-81
2023/08/14 03:43:30;;;;;;;11.80;7.40;;;16.70;99.90;;;;;;4998261;28;20057;-81
2023/08/14 03:45:55;;;;;;;11.23;6.40;;;16.60;99.90;;;;;;5015420;28;20470;-81
2023/08/14 03:48:21;;;;;;;10.20;6.13;;;16.60;99.90;;;;;;5014250;28;20121;-82
2023/08/14 03:50:47;;;;;;;10.73;6.93;;;16.60;99.90;;;;;;5015606;28;20061;-82
2023/08/14 03:53:13;;;;;;;12.20;6.55;;;16.60;99.90;;;;;;4997860;28;20033;-81
2023/08/14 03:55:38;;;;;;;8.00;5.47;;;16.60;99.90;;;;;;4997913;28;20034;-81
2023/08/14 03:58:04;;;;;;;12.05;6.47;;;16.60;99.90;;;;;;4997885;28;20025;-81
2023/08/14 04:00:29;;;;;;;12.32;7.18;;;16.60;99.90;;;;;;4997924;28;20112;-81
2023/08/14 04:02:55;;;;;;;10.40;5.90;;;16.60;99.90;;;;;;4998015;28;20157;-81
2023/08/14 04:05:21;;;;;;;10.45;6.18;;;16.60;99.90;;;;;;5015165;28;20470;-81
2023/08/14 04:07:47;;;;;;;15.80;5.70;;;16.60;99.90;;;;;;4997978;28;20034;-82
2023/08/14 04:10:12;;;;;;;12.18;6.38;;;16.60;99.90;;;;;;4997477;28;20125;-82
2023/08/14 04:12:38;;;;;;;10.23;5.53;;;16.60;99.90;;;;;;4997683;28;20040;-82
2023/08/14 04:15:17;;;;;;;11.90;5.90;;;16.50;99.90;;;;;;5015023;28;20037;-82
2023/08/14 04:17:43;;;;;;;8.48;4.95;;;16.50;99.90;;;;;;5014991;28;20042;-81
2023/08/14 04:20:12;;;;;;;10.57;5.43;;;16.50;99.90;;;;;;5014987;28;20080;-82
2023/08/14 04:22:38;;;;;;;9.13;5.05;;;16.50;99.90;;;;;;4997439;28;20037;-81
2023/08/14 04:25:04;;;;;;;10.90;4.75;;;16.50;99.90;;;;;;4997289;28;20113;-81
2023/08/14 04:27:30;;;;;;;7.25;4.13;;;16.50;99.90;;;;;;4997299;28;20038;-81
2023/08/14 04:29:56;;;;;;;6.53;4.03;;;16.50;99.90;;;;;;5015071;28;20041;-81
2023/08/14 04:32:22;;;;;;;8.32;4.95;;;16.50;99.90;;;;;;5014751;28;20034;-82
2023/08/14 04:34:47;;;;;;;6.60;4.47;;;16.50;99.90;;;;;;4996343;28;20030;-81
2023/08/14 04:37:13;;;;;;;7.20;4.50;;;16.40;99.90;;;;;;4997115;28;20038;-83
2023/08/14 04:39:38;;;;;;;8.30;4.63;;;16.50;99.90;;;;;;4997233;28;20037;-87
2023/08/14 04:42:04;;;;;;;7.88;3.85;;;16.50;99.90;;;;;;4997201;28;20433;-87
2023/08/14 04:44:30;;;;;;;7.70;4.13;;;16.50;99.90;;;;;;4997088;28;20422;-86
2023/08/14 04:46:55;;;;;;;8.93;4.85;;;16.50;99.90;;;;;;4997094;28;20034;-86
2023/08/14 04:49:21;;;;;;;7.78;4.40;;;16.50;99.90;;;;;;4997015;28;20033;-87
2023/08/14 04:51:46;;;;;;;10.18;4.85;;;16.60;99.90;;;;;;4997017;28;20030;-86
2023/08/14 04:54:12;;;;;;;9.52;4.50;;;16.60;99.90;;;;;;4997324;28;20034;-86
2023/08/14 04:56:38;;;;;;;10.93;5.07;;;16.60;99.90;;;;;;4998042;28;20124;-87
2023/08/14 04:59:03;;;;;;;8.15;5.47;;;16.60;99.90;;;;;;4999517;28;20033;-86
2023/08/14 05:01:29;;;;;;;10.75;4.57;;;16.70;99.90;;;;;;5032376;28;20033;-87
2023/08/14 05:03:55;;;;;;;10.73;5.55;;;16.70;99.90;;;;;;5015746;28;20068;-86
2023/08/14 05:06:20;;;;;;;7.97;4.80;;;16.70;99.90;;;;;;5000348;28;20029;-86
2023/08/14 05:08:46;;;;;;;11.32;5.88;;;16.80;99.90;;;;;;4998917;28;20394;-86
2023/08/14 05:11:11;;;;;;;8.32;4.78;;;16.80;99.90;;;;;;5016012;28;20030;-87
2023/08/14 05:13:39;;;;;;;9.13;5.07;;;16.80;99.90;;;;;;5016110;28;20429;-86
2023/08/14 05:16:05;;;;;;;8.35;4.97;;;16.80;99.90;;;;;;5032905;28;20026;-86
2023/08/14 05:18:31;;;;;;;7.75;4.65;;;16.90;99.90;;;;;;4999814;28;20029;-87
2023/08/14 05:20:56;;;;;;;7.70;4.63;;;16.90;99.90;;;;;;5032724;28;20436;-87
2023/08/14 05:23:22;;;;;;;9.13;5.00;;;17.00;99.90;;;;;;4999799;28;20036;-87
2023/08/14 05:25:48;;;;;;;10.75;4.95;;;17.00;99.90;;;;;;4999729;28;20038;-86
2023/08/14 05:28:14;;;;;;;7.03;4.55;;;17.10;99.90;;;;;;5016411;28;20034;-87
2023/08/14 05:30:44;;;;;;;8.20;5.32;;;17.10;99.90;;;;;;5032397;28;20036;-86
2023/08/14 05:33:10;;;;;;;9.02;5.65;;;17.10;99.90;;;;;;5034103;28;20034;-86
2023/08/14 05:35:36;;;;;;;11.27;6.00;;;17.20;99.90;;;;;;4999577;28;20022;-86
2023/08/14 05:38:02;;;;;;;10.77;6.00;;;17.30;99.90;;;;;;4999288;28;20036;-86
2023/08/14 05:40:28;;;;;;;10.13;4.95;;;17.40;99.90;;;;;;5015857;28;20167;-86
2023/08/14 05:43:11;;;;;;;10.82;6.00;;;17.40;99.90;;;;;;5032184;28;20038;-86
2023/08/14 05:45:38;;;;;;;9.70;5.90;;;17.50;99.90;;;;;;5016081;28;20052;-86
2023/08/14 05:48:06;;;;;;;9.63;5.82;;;17.60;99.90;;;;;;4999305;28;20079;-86
2023/08/14 05:50:33;;;;;;;9.45;5.63;;;17.60;99.90;;;;;;5015875;28;20039;-87
2023/08/14 05:53:03;;;;;;;10.60;6.32;;;17.70;99.90;;;;;;5015620;28;20040;-86
2023/08/14 05:55:32;;;;;;;11.30;5.90;;;17.80;99.90;;;;;;5016020;28;20025;-87
2023/08/14 05:57:58;;;;;;;10.68;5.72;;;17.80;99.90;;;;;;5016613;28;20036;-86
2023/08/14 06:00:27;;;;;;;11.38;6.28;;;17.90;99.90;;;;;;5032222;28;20021;-86
2023/08/14 06:02:53;;;;;;;10.63;5.90;;;17.90;99.90;;;;;;5016098;28;20037;-86
2023/08/14 06:05:20;;;;;;;12.18;5.75;;;18.00;99.90;;;;;;5015700;28;20034;-87
2023/08/14 06:07:50;;;;;;;9.15;5.57;;;18.00;99.90;;;;;;4999345;28;20048;-85
2023/08/14 06:10:16;;;;;;;8.95;5.95;;;18.10;99.90;;;;;;5033630;28;20034;-84
2023/08/14 06:12:42;;;;;;;9.02;5.50;;;18.20;99.90;;;;;;5015523;28;20074;-86
2023/08/14 06:15:08;;;;;;;11.25;6.40;;;18.20;99.90;;;;;;5015505;28;20500;-86
2023/08/14 06:17:34;;;;;;;8.07;5.30;;;18.20;99.90;;;;;;5033133;28;20037;-86
2023/08/14 06:20:00;;;;;;;7.95;4.90;;;18.30;99.90;;;;;;4999105;28;20120;-86
2023/08/14 06:22:26;;;;;;;9.35;6.20;;;18.30;99.90;;;;;;5031951;28;20060;-86
2023/08/14 06:24:52;;;;;;;9.10;5.35;;;18.40;99.90;;;;;;5031905;28;20499;-86
2023/08/14 06:27:18;;;;;;;8.73;5.75;;;18.40;99.90;;;;;;5015644;28;20440;-86
2023/08/14 06:29:43;;;;;;;11.85;5.97;;;18.50;99.90;;;;;;5015524;28;20029;-86
2023/08/14 06:32:09;;;;;;;13.02;6.53;;;18.60;99.90;;;;;;5015231;28;20083;-87
2023/08/14 06:34:35;;;;;;;9.38;5.55;;;18.60;99.90;;;;;;4998948;28;20541;-87
2023/08/14 06:37:00;;;;;;;12.23;6.53;;;18.60;99.90;;;;;;5015364;28;20091;-86
2023/08/14 06:39:26;;;;;;;7.32;5.65;;;18.70;99.90;;;;;;5031606;28;20025;-86
2023/08/14 06:41:52;;;;;;;11.70;6.55;;;18.70;99.90;;;;;;5033250;28;20072;-87
2023/08/14 06:44:18;;;;;;;11.45;5.95;;;18.80;99.90;;;;;;5031485;28;20107;-87
2023/08/14 06:46:44;;;;;;;8.45;5.72;;;18.80;99.90;;;;;;4998868;28;20033;-87
2023/08/14 06:49:10;;;;;;;10.70;6.65;;;18.90;99.90;;;;;;5021832;28;20087;-87
2023/08/14 06:51:36;;;;;;;10.25;6.05;;;18.90;99.90;;;;;;5006395;28;20032;-87
2023/08/14 06:54:02;;;;;;;10.50;6.00;;;19.00;99.90;;;;;;5015071;28;20029;-87
2023/08/14 06:56:28;;;;;;;11.48;6.20;;;19.00;99.90;;;;;;5015859;28;20542;-87
2023/08/14 06:58:53;;;;;;;7.93;5.85;;;19.10;99.90;;;;;;5018659;28;20119;-86
2023/08/14 07:01:19;;;;;;;11.20;6.45;;;19.10;99.90;;;;;;5002360;28;20152;-87
2023/08/14 07:03:45;;;;;;;10.55;5.45;;;19.20;99.90;;;;;;5018589;28;20030;-79
2023/08/14 07:06:11;;;;;;;9.18;5.82;;;19.30;99.90;;;;;;5018268;28;20030;-78
2023/08/14 07:08:37;;;;;;;11.15;5.68;;;19.40;99.90;;;;;;5018138;28;20025;-78
2023/08/14 07:11:03;;;;;;;10.55;5.95;;;19.50;99.90;;;;;;5018301;28;20478;-78
2023/08/14 07:13:29;;;;;;;12.10;5.28;;;19.60;99.90;;;;;;5018373;28;20029;-78
2023/08/14 07:15:54;;;;;;;9.63;5.82;;;19.70;99.90;;;;;;5001870;28;20021;-78
2023/08/14 07:18:20;;;;;;;9.10;5.00;;;19.80;99.90;;;;;;5017986;28;20064;-78
2023/08/14 07:20:46;;;;;;;9.68;5.70;;;19.80;99.90;;;;;;5018041;28;20052;-78
2023/08/14 07:23:14;;;;;;;10.52;6.03;;;19.90;99.90;;;;;;5018085;28;20028;-78
2023/08/14 07:25:40;;;;;;;10.30;5.13;;;19.90;99.90;;;;;;5018398;28;20033;-78
2023/08/14 07:28:06;;;;;;;8.65;5.57;;;20.00;99.90;;;;;;5001501;28;20528;-77
2023/08/14 07:30:31;;;;;;;8.93;5.00;;;20.10;99.90;;;;;;5017989;28;20021;-78
2023/08/14 07:32:57;;;;;;;9.32;5.03;;;20.20;99.90;;;;;;5001685;28;20036;-77
2023/08/14 07:35:23;;;;;;;15.52;6.57;;;20.30;99.90;;;;;;5001605;28;20030;-78
2023/08/14 07:37:48;;;;;;;9.32;4.75;;;20.40;99.90;;;;;;5017898;28;20462;-78
2023/08/14 07:40:14;;;;;;;15.60;5.20;;;20.50;99.90;;;;;;5001629;28;20029;-78
2023/08/14 07:42:40;;;;;;;9.13;5.00;;;20.50;99.90;;;;;;5001398;28;20036;-78
2023/08/14 07:45:05;;;;;;;14.77;5.43;;;20.60;99.90;;;;;;5035361;28;20108;-77
2023/08/14 07:47:31;;;;;;;11.93;5.07;;;20.70;99.90;;;;;;5001298;28;20500;-78
2023/08/14 07:49:57;;;;;;;12.13;5.38;;;20.70;99.90;;;;;;5017681;28;20030;-77
2023/08/14 07:52:24;;;;;;;9.90;4.93;;;20.70;99.90;;;;;;5017488;28;20017;-78
2023/08/14 07:54:50;;;;;;;8.02;4.00;;;20.80;99.90;;;;;;5033996;28;20474;-78
2023/08/14 07:57:16;;;;;;;12.38;5.30;;;20.90;99.90;;;;;;5017749;28;20424;-77
2023/08/14 07:59:41;;;;;;;8.70;3.97;;;20.90;99.90;;;;;;5000989;28;20040;-78
2023/08/14 08:02:07;;;;;;;8.23;4.43;;;20.90;99.90;;;;;;5000932;28;20039;-78
2023/08/14 08:04:36;;;;;;;8.73;3.90;;;20.90;99.80;;;;;;5017653;28;20071;-78
2023/08/14 08:07:03;;;;;;;11.30;5.03;;;20.90;99.60;;;;;;4985570;28;20061;-78
2023/08/14 08:09:29;;;;;;;10.85;4.47;;;20.80;99.30;;;;;;5000407;28;20030;-78
2023/08/14 08:11:55;;;;;;;12.40;4.00;;;20.90;99.20;;;;;;5033623;28;20025;-79
2023/08/14 08:14:20;;;;;;;12.80;4.78;;;20.90;99.00;;;;;;5017062;28;20029;-79
2023/08/14 08:16:47;;;;;;;11.63;5.30;;;20.90;98.80;;;;;;5000806;28;20025;-78
2023/08/14 08:19:13;;;;;;;10.73;4.38;;;20.90;98.60;;;;;;5017135;28;20040;-78
2023/08/14 08:21:38;;;;;;;14.93;4.47;;;20.90;98.20;;;;;;5034592;28;20026;-78
2023/08/14 08:24:05;;;;;;;9.88;4.50;;;20.90;98.10;;;;;;5016795;28;20034;-78
2023/08/14 08:26:30;;;;;;;13.40;4.57;;;20.90;97.90;;;;;;5000840;28;20112;-78
2023/08/14 08:28:56;;;;;;;10.95;4.25;;;20.90;97.70;;;;;;5016832;28;20119;-78
2023/08/14 08:31:23;;;;;;;12.52;4.80;;;20.90;97.50;;;;;;5016677;28;20542;-78
2023/08/14 08:33:49;;;;;;;12.13;5.00;;;21.00;97.40;;;;;;5000334;28;20017;-78
2023/08/14 08:36:18;;;;;;;9.60;4.05;;;21.00;97.40;;;;;;5016599;28;20116;-78
2023/08/14 08:38:44;;;;;;;15.18;4.40;;;21.00;97.30;;;;;;5034349;28;20025;-79
2023/08/14 08:41:13;;;;;;;9.27;2.85;;;21.10;97.40;;;;;;5016573;28;20120;-78
2023/08/14 08:43:40;;;;;;;9.13;3.22;;;21.10;97.20;;;;;;5016309;28;20107;-78
2023/08/14 08:46:09;;;;;;;11.50;3.05;;;21.20;97.10;;;;;;5032843;28;20433;-77
2023/08/14 08:48:40;;;;;;;9.90;3.13;;;21.20;97.00;;;;;;5032823;28;20017;-78
2023/08/14 08:51:06;;;;;;;11.95;3.03;;;21.30;96.90;;;;;;5016424;28;20032;-79
2023/08/14 08:53:33;;;;;;;8.48;3.30;;;21.30;96.40;;;;;;5034235;28;20029;-78
2023/08/14 08:55:58;;;;;;;8.80;3.30;;;21.40;96.10;;;;;;5000036;28;20022;-78
2023/08/14 08:58:25;;;;;;;8.57;2.78;;;21.40;95.90;;;;;;5016347;28;20030;-78
2023/08/14 09:00:54;;;;;;;8.45;2.70;;;21.50;95.80;;;;;;5033876;28;20025;-79
2023/08/14 09:03:20;;;;;;;9.18;2.38;;;21.50;95.50;;;;;;5016686;28;20032;-79
2023/08/14 09:05:46;;;;;;;6.47;2.10;;;21.60;95.60;;;;;;5034053;28;20369;-78
2023/08/14 09:08:12;;;;;;;7.40;2.13;;;21.70;95.50;;;;;;5016193;28;20037;-79
2023/08/14 09:10:38;;;;;;;9.07;2.10;;;21.80;95.20;;;;;;5032120;28;20037;-78
2023/08/14 09:13:04;;;;;;;9.20;2.47;;;21.80;95.00;;;;;;5015997;28;20025;-78
2023/08/14 09:15:30;;;;;;;7.40;2.13;;;21.90;94.80;;;;;;5016217;28;20116;-78
2023/08/14 09:17:55;;;;;;;10.27;2.45;;;21.90;94.50;;;;;;5016131;28;20121;-79
2023/08/14 09:20:22;;;;;;;7.43;1.98;;;22.10;94.00;;;;;;4999211;28;20549;-78
2023/08/14 09:22:48;;;;;;;6.32;1.90;;;22.10;93.50;;;;;;5016084;28;20057;-79
2023/08/14 09:25:14;;;;;;;8.38;2.00;;;22.20;93.00;;;;;;4999427;28;20048;-76
2023/08/14 09:27:42;;;;;;;9.27;2.20;;;22.20;92.40;;;;;;5016287;28;20456;-79
2023/08/14 09:30:10;;;;;;;6.15;2.20;;;22.30;92.20;;;;;;5032307;28;20029;-76
2023/08/14 09:32:36;;;;;;;8.93;2.40;;;22.30;92.10;;;;;;5016143;28;20072;-78
2023/08/14 09:35:02;;;;;;;8.88;1.98;;;22.40;92.10;;;;;;5015801;28;20054;-76
2023/08/14 09:37:29;;;;;;;8.07;2.47;;;22.50;92.00;;;;;;5031824;28;20025;-77
2023/08/14 09:40:24;;;;;;;6.32;2.13;;;22.60;91.50;;;;;;5033350;28;20024;-79
2023/08/14 09:42:50;;;;;;;6.43;1.60;;;22.70;91.30;;;;;;5019671;28;20099;-77
2023/08/14 09:45:18;;;;;;;10.60;2.25;;;22.80;90.80;;;;;;5031954;28;20052;-78
2023/08/14 09:47:45;;;;;;;6.60;1.58;;;22.80;90.60;;;;;;4999371;28;20121;-79
2023/08/14 09:50:15;;;;;;;7.45;2.00;;;23.00;90.40;;;;;;5031865;28;20057;-77
2023/08/14 09:52:42;;;;;;;6.68;1.38;;;23.00;89.60;;;;;;5031937;28;20021;-80
2023/08/14 09:55:09;;;;;;;7.95;1.52;;;23.10;89.30;;;;;;5031727;28;20120;-78
2023/08/14 09:57:37;;;;;;;7.03;1.33;;;23.20;88.50;;;;;;5015444;28;20033;-78
2023/08/14 10:00:04;;;;;;;7.10;1.33;;;23.20;87.70;;;;;;5015441;28;20037;-80
2023/08/14 10:02:32;;;;;;;8.32;1.50;;;23.30;87.30;;;;;;5031851;28;20025;-77
2023/08/14 10:05:00;;;;;;;6.53;1.60;;;23.40;86.90;;;;;;5033125;28;20557;-79
2023/08/14 10:07:27;;;;;;;7.38;1.95;;;23.50;86.70;;;;;;5015410;28;20103;-78
2023/08/14 10:09:59;;;;;;;7.85;2.28;;;23.60;85.90;;;;;;5031774;28;20026;-77
2023/08/14 10:12:29;;;;;;;5.97;1.30;;;23.70;84.90;;;;;;5031850;28;20075;-78
2023/08/14 10:15:08;;;;;;;7.68;1.25;;;23.80;84.50;;;;;;5031796;28;20017;-77
2023/08/14 10:17:48;;;;;;;8.93;1.25;;;23.90;83.50;;;;;;5031754;28;20112;-77
2023/08/14 10:20:16;;;;;;;5.90;1.27;;;24.00;81.80;;;;;;5033140;28;20025;-77
2023/08/14 10:22:43;;;;;;;5.88;1.15;;;24.20;80.60;;;;;;5031634;28;20076;-80
2023/08/14 10:25:10;;;;;;;6.60;1.73;;;24.30;80.50;;;;;;5015316;28;20029;-79
2023/08/14 10:27:37;;;;;;;4.35;1.10;;;24.50;80.00;;;;;;5031562;28;20497;-78
2023/08/14 10:30:03;;;;;;;5.07;1.58;;;24.60;79.00;;;;;;4999121;28;20172;-80
2023/08/14 10:32:30;;;;;;;5.03;0.82;;;24.80;79.00;;;;;;5001120;28;20038;-79
2023/08/14 10:34:56;;;;;;;3.72;1.15;;;25.00;76.40;;;;;;5018876;28;20398;-79
2023/08/14 10:37:43;;;;;;;3.88;0.80;;;25.00;75.00;;;;;;5035293;28;20500;-79
2023/08/14 10:40:23;;;;;;;3.22;1.02;;;25.20;75.10;;;;;;5026309;28;20041;-77
2023/08/14 10:42:56;;;;;;;3.13;0.70;;;25.60;75.10;;;;;;5035487;28;20103;-78
2023/08/14 10:45:23;;;;;;;4.80;0.80;;;26.20;74.80;;;;;;5035127;28;20041;-78
2023/08/14 10:47:50;;;;;;;5.07;0.98;;;26.80;73.20;;;;;;5018615;28;20029;-79
2023/08/14 10:50:23;;;;;;;2.72;0.60;;;27.40;72.10;;;;;;5036337;28;20017;-81
2023/08/14 10:52:50;;;;;;;3.95;0.77;;;28.10;70.70;;;;;;5034956;28;20033;-78
2023/08/14 10:55:22;;;;;;;2.97;0.80;;;28.80;69.20;;;;;;5036282;28;20469;-81
2023/08/14 10:57:48;;;;;;;4.22;0.80;;;29.40;67.00;;;;;;5035148;28;20018;-80
2023/08/14 11:00:26;;;;;;;3.40;0.90;;;30.10;64.70;;;;;;5002206;28;20032;-80
2023/08/14 11:03:06;;;;;;;3.08;0.75;;;30.80;62.90;;;;;;5034947;28;20025;-80
2023/08/14 11:05:39;;;;;;;3.17;0.80;;;31.50;61.80;;;;;;5036038;28;20033;-81
2023/08/14 11:08:10;;;;;;;3.55;0.80;;;32.20;60.40;;;;;;5034892;28;20030;-81
2023/08/14 11:10:36;;;;;;;3.00;0.90;;;32.70;58.70;;;;;;5018978;28;20026;-81
2023/08/14 11:13:03;;;;;;;2.78;0.93;;;33.20;57.60;;;;;;5036002;28;20036;-81
2023/08/14 11:15:33;;;;;;;5.30;1.02;;;33.70;56.20;;;;;;5002019;28;20108;-81
2023/08/14 11:18:00;;;;;;;3.40;0.98;;;33.80;54.70;;;;;;5034465;28;20033;-80
2023/08/14 11:20:27;;;;;;;3.20;1.00;;;34.10;54.40;;;;;;5018032;28;20021;-80
2023/08/14 11:22:53;;;;;;;4.45;1.00;;;34.40;54.50;;;;;;5035868;28;20040;-80
2023/08/14 11:25:20;;;;;;;3.17;0.60;;;34.80;53.70;;;;;;5018325;28;20104;-81
2023/08/14 11:27:52;;;;;;;4.22;1.00;;;35.20;53.40;;;;;;5035722;28;20037;-81
2023/08/14 11:30:19;;;;;;;2.70;0.68;;;35.60;52.30;;;;;;5035634;28;20037;-80
2023/08/14 11:32:45;;;;;;;2.33;0.63;;;36.00;51.70;;;;;;5018002;28;20057;-81
2023/08/14 11:35:11;;;;;;;2.47;0.77;;;36.00;51.50;;;;;;5017751;28;20038;-81
2023/08/14 11:37:37;;;;;;;3.53;0.80;;;36.10;50.10;;;;;;5017957;28;20022;-80
2023/08/14 11:40:04;;;;;;;3.90;1.13;;;36.20;49.50;;;;;;5018024;28;20033;-82
2023/08/14 11:42:34;;;;;;;4.05;1.02;;;36.50;47.70;;;;;;5033958;28;20497;-81
2023/08/14 11:45:03;;;;;;;5.03;0.90;;;36.70;47.10;;;;;;5033862;28;20049;-82
2023/08/14 11:47:33;;;;;;;6.20;1.17;;;36.90;46.50;;;;;;5002288;28;20049;-81
2023/08/14 11:49:59;;;;;;;2.80;0.90;;;37.20;45.60;;;;;;5018470;28;20033;-81
2023/08/14 11:52:26;;;;;;;2.45;0.77;;;37.30;45.60;;;;;;5017564;28;20029;-80
2023/08/14 11:54:57;;;;;;;2.30;0.80;;;37.40;45.30;;;;;;5034038;28;20076;-78
2023/08/14 11:57:27;;;;;;;5.40;0.90;;;37.50;45.30;;;;;;5028609;28;20029;-82
2023/08/14 11:59:53;;;;;;;3.13;0.80;;;37.60;44.50;;;;;;5006241;28;20470;-79
2023/08/14 12:02:20;;;;;;;5.03;1.02;;;37.60;44.00;;;;;;5015343;28;20030;-81
2023/08/14 12:04:46;;;;;;;2.20;0.70;;;37.70;43.50;;;;;;5014067;28;20072;-82
2023/08/14 12:07:16;;;;;;;3.80;0.95;;;37.90;43.10;;;;;;4997548;28;20022;-82
2023/08/14 12:09:42;;;;;;;4.28;0.77;;;37.90;43.60;;;;;;4998243;28;20053;-82
2023/08/14 12:12:10;;;;;;;3.90;1.10;;;38.20;43.80;;;;;;4997612;28;20056;-81
2023/08/14 12:14:46;;;;;;;3.05;0.80;;;38.40;43.50;;;;;;4997451;28;20497;-80
2023/08/14 12:17:13;;;;;;;3.25;0.60;;;38.70;42.60;;;;;;4997815;28;20026;-79
2023/08/14 12:19:39;;;;;;;3.70;0.90;;;38.90;42.40;;;;;;4997579;28;20034;-83
2023/08/14 12:22:09;;;;;;;5.30;0.93;;;38.90;42.40;;;;;;4997457;28;20129;-82
2023/08/14 12:24:42;;;;;;;2.38;0.73;;;39.10;42.10;;;;;;5013634;28;20116;-81
2023/08/14 12:27:22;;;;;;;2.70;0.80;;;39.20;41.80;;;;;;4997335;28;20482;-81
2023/08/14 12:29:49;;;;;;;3.90;0.77;;;39.40;41.10;;;;;;5013501;28;20022;-81
2023/08/14 12:32:15;;;;;;;3.35;0.93;;;39.50;41.60;;;;;;4997155;28;20549;-83
2023/08/14 12:34:41;;;;;;;4.10;0.85;;;39.70;41.30;;;;;;5013369;28;20029;-83
2023/08/14 12:37:10;;;;;;;2.60;0.60;;;39.70;41.20;;;;;;5013307;28;20079;-83
2023/08/14 12:39:36;;;;;;;2.33;0.70;;;39.80;41.00;;;;;;4997402;28;20025;-82
2023/08/14 12:42:02;;;;;;;3.63;0.80;;;40.00;41.20;;;;;;4997033;28;20045;-82
2023/08/14 12:44:29;;;;;;;3.92;0.90;;;40.10;40.80;;;;;;5014447;28;20057;-83